Time;durP1;ratioP1;P1;durP2;ratioP2;P2;SDS_P1;SDS_P2;PMS_P1;PMS_P2;Temp;Humidity;BMP_temperature;BMP_pressure;BME280_temperature;BME280_humidity;BME280_pressure;Samples;Min_cycle;Max_cycle;Signal;HPM_P1;HPM_P2
2022/11/29 00:00:58;;;;;;;17.77;10.98;;;;;;;4.69;78.36;92413.75;2072476;69;20235;-72
2022/11/29 00:03:25;;;;;;;21.63;12.13;;;;;;;4.68;78.24;92409.50;2072523;69;20255;-72
2022/11/29 00:05:52;;;;;;;21.35;12.27;;;;;;;4.78;78.35;92407.50;2071484;69;20663;-72
2022/11/29 00:08:18;;;;;;;22.88;11.75;;;;;;;4.69;78.77;92404.66;2071274;69;20179;-72
2022/11/29 00:10:44;;;;;;;20.92;11.45;;;;;;;4.66;78.65;92403.03;2071223;69;20548;-72
2022/11/29 00:13:10;;;;;;;22.45;12.07;;;;;;;4.59;79.26;92399.78;2071451;69;20147;-79
2022/11/29 00:15:36;;;;;;;19.77;11.80;;;;;;;4.65;79.21;92395.97;2071278;69;20188;-74
2022/11/29 00:18:02;;;;;;;17.48;11.20;;;;;;;4.69;78.46;92397.03;2067832;69;20152;-76
2022/11/29 00:20:28;;;;;;;20.30;11.85;;;;;;;4.65;78.83;92399.50;2067829;69;20136;-75
2022/11/29 00:22:53;;;;;;;20.30;12.57;;;;;;;4.74;78.38;92395.28;2071254;69;20155;-75
2022/11/29 00:25:19;;;;;;;18.98;11.38;;;;;;;4.78;77.94;92395.59;2067845;69;20599;-73
2022/11/29 00:27:45;;;;;;;19.75;11.27;;;;;;;4.78;78.00;92395.59;2071079;69;20140;-74
2022/11/29 00:30:11;;;;;;;20.38;11.73;;;;;;;4.77;78.48;92394.88;2071448;69;20266;-71
2022/11/29 00:32:36;;;;;;;17.00;10.20;;;;;;;4.80;78.25;92390.91;2070975;69;20152;-71
2022/11/29 00:35:02;;;;;;;19.77;11.55;;;;;;;4.77;77.96;92392.06;2071298;69;20159;-71
2022/11/29 00:37:27;;;;;;;21.30;11.45;;;;;;;4.79;78.33;92391.47;2071338;69;20511;-71
2022/11/29 00:39:53;;;;;;;20.23;11.23;;;;;;;4.84;77.91;92390.47;2071158;69;20240;-71
2022/11/29 00:42:19;;;;;;;20.10;11.80;;;;;;;4.83;77.86;92389.00;2071367;69;20163;-79
2022/11/29 00:44:45;;;;;;;19.90;11.38;;;;;;;4.84;77.75;92390.47;2071297;69;20221;-79
2022/11/29 00:47:10;;;;;;;21.55;12.88;;;;;;;4.81;78.01;92384.03;2064972;69;20164;-76
2022/11/29 00:49:36;;;;;;;24.70;12.80;;;;;;;4.81;77.76;92394.41;2067851;69;20559;-77
2022/11/29 00:52:02;;;;;;;21.48;12.57;;;;;;;4.73;79.04;92385.44;2071350;69;20257;-75
2022/11/29 00:54:28;;;;;;;23.30;12.95;;;;;;;4.72;79.56;92386.75;2071165;69;20152;-79
2022/11/29 00:56:53;;;;;;;21.65;12.18;;;;;;;4.71;79.27;92397.16;2067908;69;20147;-76
2022/11/29 00:59:19;;;;;;;21.60;12.07;;;;;;;4.72;79.39;92389.53;2071232;69;20168;-76
2022/11/29 01:01:44;;;;;;;22.30;13.27;;;;;;;4.73;79.99;92394.56;2071466;69;20167;-78
2022/11/29 01:04:10;;;;;;;19.90;12.77;;;;;;;4.74;79.42;92390.44;2071213;69;20163;-72
2022/11/29 01:06:36;;;;;;;19.13;11.88;;;;;;;4.81;79.07;92391.63;2071151;69;20136;-72
2022/11/29 01:09:01;;;;;;;20.88;11.98;;;;;;;4.85;78.74;92387.09;2071154;69;20171;-72
2022/11/29 01:11:27;;;;;;;20.67;12.18;;;;;;;4.82;78.89;92387.53;2071103;69;20508;-73
2022/11/29 01:13:55;;;;;;;19.58;12.32;;;;;;;4.84;78.79;92391.22;2071172;69;20136;-77
2022/11/29 01:16:21;;;;;;;20.10;12.73;;;;;;;4.88;79.32;92388.00;2071120;69;20608;-77
2022/11/29 01:18:47;;;;;;;21.10;12.55;;;;;;;4.92;78.95;92388.31;2070990;69;20148;-77
2022/11/29 01:21:15;;;;;;;19.38;11.65;;;;;;;4.90;78.94;92385.34;2071082;69;20160;-75
2022/11/29 01:23:42;;;;;;;19.17;11.60;;;;;;;4.72;78.73;92386.75;2071185;69;20156;-76
2022/11/29 01:26:18;;;;;;;18.15;10.55;;;;;;;4.75;78.58;92388.38;2071184;69;20184;-74
2022/11/29 01:28:48;;;;;;;15.10;9.45;;;;;;;4.81;78.30;92391.63;2071143;69;20627;-75
2022/11/29 01:31:27;;;;;;;14.27;9.43;;;;;;;4.83;77.76;92389.75;2071272;69;20172;-78
2022/11/29 01:33:59;;;;;;;16.48;9.43;;;;;;;4.68;79.01;92381.63;2071331;69;20170;-76
2022/11/29 01:36:25;;;;;;;16.92;11.32;;;;;;;4.54;79.87;92391.69;2071197;69;20155;-74
2022/11/29 01:38:51;;;;;;;21.25;11.65;;;;;;;4.37;81.55;92395.25;2069859;69;20266;-73
2022/11/29 01:41:23;;;;;;;16.25;10.07;;;;;;;4.65;79.84;92385.56;2066473;69;20188;-73
2022/11/29 01:43:56;;;;;;;15.98;10.27;;;;;;;4.57;79.84;92391.22;2071048;69;20183;-78
2022/11/29 01:46:22;;;;;;;14.85;9.93;;;;;;;4.67;79.26;92385.69;2071447;69;20140;-72
2022/11/29 01:48:48;;;;;;;15.93;9.85;;;;;;;4.74;78.92;92389.72;2071436;69;20144;-74
2022/11/29 01:51:14;;;;;;;15.50;10.32;;;;;;;4.74;78.44;92384.84;2068264;69;20644;-72
2022/11/29 01:53:40;;;;;;;15.07;10.00;;;;;;;4.81;78.62;92389.59;2071672;69;20151;-74
2022/11/29 01:56:07;;;;;;;16.55;10.48;;;;;;;4.66;79.41;92387.03;2071474;69;20152;-81
2022/11/29 01:58:34;;;;;;;16.73;10.90;;;;;;;4.71;79.15;92385.28;2071462;69;20682;-79
2022/11/29 02:01:00;;;;;;;18.55;10.45;;;;;;;4.59;80.13;92388.63;2071687;69;20682;-73
2022/11/29 02:03:26;;;;;;;18.08;10.57;;;;;;;4.65;79.59;92382.78;2071755;69;20155;-73
2022/11/29 02:05:53;;;;;;;17.58;11.27;;;;;;;4.63;79.52;92379.84;2071782;69;20163;-72
2022/11/29 02:08:25;;;;;;;16.10;10.48;;;;;;;4.71;79.17;92374.88;2071577;69;20172;-71
2022/11/29 02:10:58;;;;;;;16.92;10.50;;;;;;;4.73;79.28;92375.03;2071607;69;20156;-72
2022/11/29 02:14:01;;;;;;;16.73;10.93;;;;;;;4.70;79.18;92369.88;2071688;69;20152;-72
2022/11/29 02:16:40;;;;;;;15.00;9.77;;;;;;;4.76;79.12;92378.69;2067990;69;20616;-72
2022/11/29 02:19:50;;;;;;;15.73;9.38;;;;;;;4.77;79.39;92377.41;2071443;69;20210;-72
2022/11/29 02:22:37;;;;;;;13.18;8.50;;;;;;;4.68;79.81;92384.41;2071659;69;20125;-73
2022/11/29 02:25:15;;;;;;;14.85;8.93;;;;;;;4.69;79.56;92379.56;2071593;69;20162;-73
2022/11/29 02:28:08;;;;;;;13.85;9.05;;;;;;;4.75;79.47;92371.66;2071458;69;20156;-74
2022/11/29 02:30:58;;;;;;;15.20;8.48;;;;;;;4.69;78.66;92374.72;2071269;69;20137;-76
2022/11/29 02:33:54;;;;;;;12.20;7.80;;;;;;;4.73;78.26;92371.50;2071526;69;20290;-72
2022/11/29 02:36:24;;;;;;;15.23;7.93;;;;;;;4.72;78.40;92370.78;2071361;69;20573;-72
2022/11/29 02:39:27;;;;;;;15.75;8.75;;;;;;;4.72;78.85;92364.44;2071406;69;20232;-72
2022/11/29 02:42:11;;;;;;;13.80;8.45;;;;;;;4.68;78.91;92373.25;2071379;69;20164;-72
2022/11/29 02:44:55;;;;;;;11.50;7.63;;;;;;;4.66;79.02;92370.28;2071449;69;20172;-72
2022/11/29 02:47:43;;;;;;;15.15;8.70;;;;;;;4.62;78.52;92372.75;2071385;69;20312;-72
2022/11/29 02:50:29;;;;;;;12.18;8.05;;;;;;;4.71;77.83;92374.13;2071379;69;20233;-71
2022/11/29 02:53:32;;;;;;;13.52;8.18;;;;;;;4.68;77.65;92370.47;2071535;69;20148;-72
2022/11/29 02:56:13;;;;;;;;;;;;;;;4.74;77.88;92376.50;2071096;69;20228;-72
2022/11/29 02:58:52;;;;;;;14.73;8.45;;;;;;;4.77;77.06;92377.41;2071411;69;20048;-77
2022/11/29 03:01:39;;;;;;;15.13;8.68;;;;;;;4.55;77.87;92379.94;2067881;69;20177;-76
2022/11/29 03:04:30;;;;;;;12.43;7.63;;;;;;;4.56;78.79;92380.66;2067912;69;20144;-73
2022/11/29 03:07:01;;;;;;;9.98;6.70;;;;;;;4.48;79.66;92375.19;2068014;69;20152;-73
2022/11/29 03:09:41;;;;;;;10.63;7.22;;;;;;;4.50;79.01;92374.63;2067995;69;20223;-74
2022/11/29 03:12:29;;;;;;;12.05;7.70;;;;;;;4.53;78.98;92376.25;2068025;69;20666;-72
2022/11/29 03:15:27;;;;;;;14.48;8.02;;;;;;;4.51;78.92;92379.63;2068021;69;20543;-73
2022/11/29 03:18:02;;;;;;;10.88;7.47;;;;;;;4.57;78.26;92374.50;2064567;69;20626;-74
2022/11/29 03:21:23;;;;;;;12.25;7.28;;;;;;;4.58;78.61;92373.22;2068233;69;20140;-72
2022/11/29 03:23:56;;;;;;;11.65;7.43;;;;;;;4.61;78.62;92376.16;2050090;70;20185;-72
2022/11/29 03:26:40;;;;;;;;;;;;;;;4.53;78.76;92379.78;2050169;70;20237;-73
2022/11/29 03:29:11;;;;;;;15.52;8.27;;;;;;;4.56;77.65;92373.03;2050390;70;20506;-73
2022/11/29 03:31:46;;;;;;;14.80;8.40;;;;;;;4.58;77.80;92380.81;2050497;70;20165;-72
2022/11/29 03:34:26;;;;;;;12.32;8.25;;;;;;;4.64;77.19;92378.50;2050444;70;20158;-72
2022/11/29 03:37:16;;;;;;;13.48;8.23;;;;;;;4.60;77.25;92383.78;2050502;70;20158;-73
2022/11/29 03:39:50;;;;;;;13.07;8.52;;;;;;;4.59;77.08;92377.47;2050483;70;20577;-72
2022/11/29 03:42:50;;;;;;;12.88;8.57;;;;;;;4.57;76.70;92379.34;2050597;70;20511;-72
2022/11/29 03:45:18;;;;;;;12.30;7.90;;;;;;;4.59;77.41;92380.25;2050460;70;20245;-73
2022/11/29 03:47:55;;;;;;;12.75;8.50;;;;;;;4.53;77.84;92379.03;2050379;70;20209;-76
2022/11/29 03:50:27;;;;;;;14.20;8.90;;;;;;;4.52;77.92;92383.16;2049891;70;20224;-75
2022/11/29 03:53:00;;;;;;;13.05;8.40;;;;;;;4.54;78.34;92386.09;2050285;70;20650;-78
2022/11/29 03:55:46;;;;;;;12.75;8.40;;;;;;;4.55;77.75;92382.00;2050671;70;20197;-74
2022/11/29 03:58:36;;;;;;;14.05;8.18;;;;;;;4.56;77.40;92381.41;2050731;70;20200;-74
2022/11/29 04:01:56;;;;;;;13.70;7.82;;;;;;;4.57;77.62;92371.72;2062141;69;20229;-80
2022/11/29 04:05:04;;;;;;;12.27;8.60;;;;;;;4.61;78.00;92388.03;2053788;70;20153;-78
2022/11/29 04:08:19;;;;;;;13.73;8.70;;;;;;;4.54;77.79;92381.25;2067723;69;20161;-76
2022/11/29 04:11:10;;;;;;;12.20;7.97;;;;;;;4.58;77.55;92378.03;2059048;69;20137;-77
2022/11/29 04:14:01;;;;;;;15.05;8.93;;;;;;;4.57;77.84;92379.34;2068070;69;20176;-74
2022/11/29 04:16:33;;;;;;;13.52;8.95;;;;;;;4.57;77.50;92380.09;2067560;69;20152;-74
2022/11/29 04:19:14;;;;;;;12.47;8.83;;;;;;;4.57;76.96;92379.34;2067982;69;20156;-74
2022/11/29 04:22:12;;;;;;;13.38;8.73;;;;;;;4.60;77.53;92383.78;2067941;69;20334;-73
2022/11/29 04:24:49;;;;;;;13.90;8.73;;;;;;;4.55;77.87;92374.38;2055731;69;20234;-73
2022/11/29 04:27:35;;;;;;;12.27;7.95;;;;;;;4.58;77.56;92373.22;2067957;69;20156;-74
2022/11/29 04:30:09;;;;;;;15.10;9.45;;;;;;;4.57;77.62;92377.28;2067929;69;20597;-73
2022/11/29 04:32:58;;;;;;;15.50;8.85;;;;;;;4.56;77.44;92375.09;2067974;69;20244;-73
2022/11/29 04:35:27;;;;;;;15.55;9.18;;;;;;;4.63;77.24;92373.50;2068069;69;20225;-72
2022/11/29 04:38:23;;;;;;;15.75;9.68;;;;;;;4.55;77.56;92377.16;2068109;69;20601;-78
2022/11/29 04:41:18;;;;;;;13.98;9.18;;;;;;;4.48;77.86;92380.78;2067932;69;20175;-72
2022/11/29 04:43:59;;;;;;;13.23;8.63;;;;;;;4.56;77.54;92381.41;2067968;69;20229;-75
2022/11/29 04:46:56;;;;;;;14.23;8.15;;;;;;;4.57;77.79;92387.72;2067869;69;20588;-73
2022/11/29 04:49:21;;;;;;;15.43;8.57;;;;;;;4.49;77.94;92381.50;2067851;69;20672;-72
2022/11/29 04:52:02;;;;;;;14.48;8.95;;;;;;;4.50;77.68;92389.31;2064631;69;20243;-74
2022/11/29 04:55:03;;;;;;;13.43;8.75;;;;;;;4.50;77.54;92378.16;2069358;69;20136;-73
2022/11/29 04:57:49;;;;;;;11.40;7.78;;;;;;;4.54;77.96;92386.09;2069021;69;20151;-71
2022/11/29 05:00:19;;;;;;;12.07;8.20;;;;;;;4.52;78.48;92389.44;2067927;69;20153;-78
2022/11/29 05:02:54;;;;;;;12.10;7.32;;;;;;;4.58;77.63;92394.75;2068260;69;20339;-78
2022/11/29 05:05:23;;;;;;;10.70;7.10;;;;;;;4.59;77.47;92396.97;2070455;69;20155;-76
2022/11/29 05:08:22;;;;;;;11.43;7.47;;;;;;;4.58;77.24;92395.50;2071003;69;20186;-78
2022/11/29 05:11:04;;;;;;;12.15;8.15;;;;;;;4.58;77.39;92397.53;2070988;69;20529;-73
2022/11/29 05:13:51;;;;;;;13.93;8.88;;;;;;;4.46;76.98;92400.13;2071238;69;20194;-73
2022/11/29 05:16:23;;;;;;;16.92;8.77;;;;;;;4.56;77.21;92400.91;2071118;69;20220;-73
2022/11/29 05:19:42;;;;;;;19.08;8.45;;;;;;;4.48;77.78;92403.06;2071185;69;20242;-73
2022/11/29 05:22:29;;;;;;;19.48;11.77;;;;;;;4.20;79.30;92407.16;2054128;69;20146;-75
2022/11/29 05:25:13;;;;;;;16.42;10.95;;;;;;;4.11;80.25;92405.06;2054078;70;20247;-71
2022/11/29 05:27:55;;;;;;;14.88;10.40;;;;;;;4.28;79.80;92407.81;2063085;69;20173;-70
2022/11/29 05:30:24;;;;;;;18.75;11.45;;;;;;;4.31;79.60;92409.44;2064983;69;20284;-72
2022/11/29 05:33:13;;;;;;;17.02;10.13;;;;;;;4.40;79.24;92415.63;2064850;69;20172;-71
2022/11/29 05:35:48;;;;;;;19.60;10.02;;;;;;;4.46;78.24;92416.88;2065022;69;20246;-71
2022/11/29 05:38:40;;;;;;;16.42;10.10;;;;;;;4.51;77.92;92418.66;2064967;69;20212;-71
2022/11/29 05:41:53;;;;;;;19.77;11.20;;;;;;;4.40;78.63;92418.44;2065039;69;20216;-71
2022/11/29 05:44:27;;;;;;;18.63;10.73;;;;;;;4.36;78.75;92420.91;2053677;70;20181;-77
2022/11/29 05:47:01;;;;;;;20.38;10.52;;;;;;;4.36;79.00;92420.91;2053705;70;20253;-73
2022/11/29 05:49:43;;;;;;;18.55;10.40;;;;;;;4.40;78.89;92427.53;2053791;70;20146;-71
2022/11/29 05:52:27;;;;;;;17.70;11.07;;;;;;;4.42;78.33;92421.38;2053613;70;20138;-74
2022/11/29 05:55:14;;;;;;;18.35;11.55;;;;;;;4.38;78.56;92427.38;2053745;69;20595;-74
2022/11/29 05:57:53;;;;;;;16.80;10.88;;;;;;;4.41;78.97;92420.66;2053776;69;20280;-73
2022/11/29 06:00:19;;;;;;;17.52;11.25;;;;;;;4.35;79.34;92425.72;2053576;70;20177;-73
2022/11/29 06:02:56;;;;;;;19.17;10.98;;;;;;;4.34;79.13;92415.91;2053547;69;20149;-79
2022/11/29 06:05:46;;;;;;;18.02;10.57;;;;;;;4.47;78.57;92425.97;2053677;70;20722;-73
2022/11/29 06:08:17;;;;;;;19.17;11.13;;;;;;;4.39;79.16;92423.25;2053664;69;20146;-73
2022/11/29 06:11:00;;;;;;;15.98;10.18;;;;;;;4.37;79.17;92423.13;2053742;69;20145;-76
2022/11/29 06:13:49;;;;;;;18.63;10.73;;;;;;;4.39;78.90;92416.97;2053704;70;20169;-74
2022/11/29 06:16:34;;;;;;;15.30;10.20;;;;;;;4.42;78.62;92426.97;2064823;69;20214;-77
2022/11/29 06:19:06;;;;;;;14.65;10.23;;;;;;;4.40;79.05;92419.19;2064755;69;20236;-73
2022/11/29 06:21:39;;;;;;;16.88;10.40;;;;;;;4.30;79.26;92412.78;2064634;69;20489;-76
2022/11/29 06:24:23;;;;;;;19.00;11.75;;;;;;;4.32;79.42;92424.84;2064901;69;20470;-74
2022/11/29 06:27:21;;;;;;;17.58;10.50;;;;;;;4.38;79.30;92418.28;2064798;69;20161;-75
2022/11/29 06:30:02;;;;;;;21.60;10.05;;;;;;;4.48;78.37;92424.63;2064874;69;20153;-75
2022/11/29 06:32:36;;;;;;;17.75;11.20;;;;;;;4.42;79.29;92426.97;2065137;69;20561;-81
2022/11/29 06:35:24;;;;;;;19.70;11.07;;;;;;;4.28;79.50;92430.09;2065076;69;20241;-83
2022/11/29 06:37:54;;;;;;;19.02;11.10;;;;;;;4.19;80.51;92435.63;2064993;69;20203;-74
2022/11/29 06:40:20;;;;;;;21.42;11.45;;;;;;;4.16;81.23;92433.97;2064936;69;20210;-73
2022/11/29 06:42:47;;;;;;;21.13;10.70;;;;;;;4.37;79.62;92437.06;2064781;69;20160;-77
2022/11/29 06:45:14;;;;;;;85.50;28.40;;;;;;;4.34;79.71;92443.78;2064812;69;20167;-73
2022/11/29 06:47:44;;;;;;;49.97;20.45;;;;;;;4.41;79.10;92445.75;2064662;69;20143;-72
2022/11/29 06:50:37;;;;;;;38.20;16.73;;;;;;;4.37;80.04;92439.84;2064851;69;20198;-74
2022/11/29 06:53:29;;;;;;;33.63;16.13;;;;;;;4.43;79.88;92440.31;2064876;69;20141;-73
2022/11/29 06:56:01;;;;;;;30.40;14.88;;;;;;;4.45;79.18;92443.28;2064895;69;20137;-73
2022/11/29 06:58:34;;;;;;;27.15;12.75;;;;;;;4.47;78.69;92439.91;2064795;69;20605;-73
2022/11/29 07:01:21;;;;;;;23.42;11.68;;;;;;;4.47;79.03;92443.41;2065145;69;20157;-74
2022/11/29 07:03:59;;;;;;;22.40;11.95;;;;;;;4.48;79.12;92444.16;2064731;69;20167;-73
2022/11/29 07:06:27;;;;;;;22.65;11.93;;;;;;;4.47;79.39;92442.69;2064812;69;20175;-73
2022/11/29 07:08:58;;;;;;;26.33;12.70;;;;;;;4.46;79.69;92452.38;2064788;69;20152;-74
2022/11/29 07:11:24;;;;;;;20.58;13.40;;;;;;;4.44;79.94;92455.72;2064935;69;20603;-73
2022/11/29 07:13:50;;;;;;;20.83;12.45;;;;;;;4.32;80.21;92449.94;2064910;69;20188;-72
2022/11/29 07:16:48;;;;;;;18.02;12.27;;;;;;;4.41;80.09;92451.31;2064767;69;20188;-76
2022/11/29 07:19:28;;;;;;;18.63;10.80;;;;;;;4.29;81.03;92461.50;2058496;69;20176;-74
2022/11/29 07:22:04;;;;;;;21.73;9.70;;;;;;;4.38;80.61;92458.03;2064810;69;20295;-72
2022/11/29 07:25:02;;;;;;;21.08;9.65;;;;;;;4.53;79.74;92465.47;2064795;69;20141;-74
2022/11/29 07:27:43;;;;;;;24.10;13.80;;;;;;;4.43;80.19;92464.66;2059073;69;20169;-71
2022/11/29 07:30:13;;;;;;;47.60;26.80;;;;;;;4.33;80.80;92467.38;2064910;69;20150;-76
2022/11/29 07:33:04;;;;;;;35.72;19.13;;;;;;;4.41;80.63;92461.72;2064067;69;20148;-72
2022/11/29 07:35:55;;;;;;;27.15;14.32;;;;;;;4.44;80.20;92463.34;2064746;69;20157;-72
2022/11/29 07:38:24;;;;;;;27.55;15.32;;;;;;;4.57;79.86;92463.00;2064642;69;20180;-72
2022/11/29 07:41:17;;;;;;;24.05;14.02;;;;;;;4.58;80.11;92464.47;2064703;69;20241;-73
2022/11/29 07:44:00;;;;;;;25.80;13.40;;;;;;;4.69;79.54;92472.31;2061464;69;20140;-74
2022/11/29 07:46:27;;;;;;;22.05;14.07;;;;;;;4.71;79.18;92466.88;2064790;69;20152;-72
2022/11/29 07:48:53;;;;;;;24.15;13.52;;;;;;;4.70;79.71;92465.41;2064550;69;20298;-73
2022/11/29 07:51:19;;;;;;;22.85;14.02;;;;;;;4.68;79.47;92462.47;2064825;69;20152;-72
2022/11/29 07:53:45;;;;;;;23.13;14.05;;;;;;;4.66;79.25;92464.38;2064656;69;20161;-72
2022/11/29 07:56:15;;;;;;;24.30;14.57;;;;;;;4.67;79.71;92465.84;2064716;69;20183;-73
2022/11/29 07:58:41;;;;;;;24.60;13.80;;;;;;;4.66;79.93;92470.66;2064609;69;20144;-72
2022/11/29 08:01:07;;;;;;;21.25;13.73;;;;;;;4.77;79.46;92470.16;2064725;69;20161;-72
2022/11/29 08:03:34;;;;;;;21.52;14.43;;;;;;;4.82;79.05;92469.16;2064513;69;20145;-72
2022/11/29 08:06:01;;;;;;;29.17;16.80;;;;;;;4.77;79.32;92472.22;2064640;69;20143;-72
2022/11/29 08:08:26;;;;;;;30.92;17.25;;;;;;;4.64;80.03;92464.22;2064830;69;20244;-74
2022/11/29 08:10:52;;;;;;;61.38;33.92;;;;;;;4.66;80.50;92469.94;2064240;69;20157;-73
2022/11/29 08:13:19;;;;;;;50.80;27.70;;;;;;;4.78;80.21;92471.63;2064048;69;20149;-75
2022/11/29 08:15:46;;;;;;;52.83;29.52;;;;;;;4.75;80.11;92472.03;2064611;69;20159;-80
2022/11/29 08:18:12;;;;;;;36.30;21.67;;;;;;;4.73;80.42;92469.13;2063938;69;20148;-78
2022/11/29 08:20:40;;;;;;;32.88;20.85;;;;;;;4.73;80.27;92475.41;2064693;69;20241;-72
2022/11/29 08:23:06;;;;;;;28.98;17.98;;;;;;;4.93;79.63;92476.25;2064576;69;20141;-77
2022/11/29 08:25:32;;;;;;;29.65;19.05;;;;;;;4.89;79.47;92473.16;2064531;69;20121;-76
2022/11/29 08:27:57;;;;;;;29.88;18.13;;;;;;;4.92;79.34;92480.38;2069210;69;20217;-73
2022/11/29 08:30:23;;;;;;;23.77;15.98;;;;;;;4.80;79.52;92476.63;2071281;69;20175;-73
2022/11/29 08:32:49;;;;;;;28.92;16.92;;;;;;;4.84;79.61;92477.66;2067885;69;20148;-73
2022/11/29 08:35:16;;;;;;;26.30;16.05;;;;;;;5.00;79.26;92477.47;2071232;69;20592;-72
2022/11/29 08:37:42;;;;;;;30.63;16.45;;;;;;;4.94;79.96;92485.34;2071265;69;20147;-71
2022/11/29 08:40:08;;;;;;;25.13;15.27;;;;;;;4.97;79.58;92481.41;2071239;69;20140;-74
2022/11/29 08:42:34;;;;;;;27.73;16.75;;;;;;;4.92;79.36;92482.41;2067942;69;20140;-76
2022/11/29 08:44:59;;;;;;;29.15;16.80;;;;;;;5.06;79.05;92478.66;2071192;69;20148;-74
2022/11/29 08:47:37;;;;;;;29.58;18.05;;;;;;;5.09;79.25;92483.09;2071230;69;20241;-76
2022/11/29 08:50:13;;;;;;;29.50;17.08;;;;;;;5.10;79.75;92490.13;2071349;69;20159;-76
2022/11/29 08:55:34;;;;;;;29.13;17.30;;;;;;;5.25;78.81;92489.16;2071425;69;20569;-83
2022/11/29 08:58:05;;;;;;;29.38;16.95;;;;;;;5.33;78.89;92484.22;2071415;69;20136;-80
2022/11/29 09:00:32;;;;;;;23.55;15.93;;;;;;;5.37;78.47;92489.38;2071430;69;20234;-75
2022/11/29 09:03:58;;;;;;;26.23;15.60;;;;;;;5.47;78.42;92486.59;2071134;69;20554;-77
2022/11/29 09:05:43;;;;;;;31.88;18.80;;;;;;;5.55;78.00;92501.91;2071420;69;20167;-76
2022/11/29 09:08:09;;;;;;;39.90;25.08;;;;;;;5.40;78.11;92493.78;2071239;69;20160;-78
2022/11/29 09:10:38;;;;;;;41.38;25.55;;;;;;;5.33;78.79;92498.16;2071367;69;20132;-76
2022/11/29 09:13:05;;;;;;;45.90;28.40;;;;;;;5.40;78.90;92493.78;2071897;69;20211;-73
2022/11/29 09:15:30;;;;;;;36.25;22.65;;;;;;;5.34;78.38;92494.06;2071369;69;20132;-72
2022/11/29 09:17:56;;;;;;;29.63;18.75;;;;;;;5.40;78.56;92502.16;2071126;69;20147;-72
2022/11/29 09:20:21;;;;;;;29.00;19.60;;;;;;;5.37;77.85;92508.91;2068254;69;20221;-72
2022/11/29 09:22:47;;;;;;;41.58;25.80;;;;;;;5.22;78.46;92503.53;2067901;69;20167;-73
2022/11/29 09:25:13;;;;;;;39.28;22.98;;;;;;;5.27;78.65;92508.88;2071241;69;20215;-72
2022/11/29 09:27:40;;;;;;;28.88;18.27;;;;;;;5.63;77.31;92515.00;2071207;69;20140;-81
2022/11/29 09:30:07;;;;;;;30.52;17.77;;;;;;;5.53;78.03;92509.41;2071189;69;20298;-77
2022/11/29 09:32:34;;;;;;;28.65;17.50;;;;;;;5.63;77.31;92512.22;2069504;69;20144;-73
2022/11/29 09:34:59;;;;;;;29.60;19.25;;;;;;;5.68;77.03;92508.41;2071974;69;20641;-80
2022/11/29 09:37:25;;;;;;;25.90;17.13;;;;;;;5.68;76.33;92514.00;2071303;69;20210;-77
2022/11/29 09:39:50;;;;;;;28.85;17.48;;;;;;;5.54;76.56;92511.63;2071216;69;20164;-76
2022/11/29 09:42:33;;;;;;;23.77;14.38;;;;;;;5.27;77.71;92520.03;2071210;69;20145;-76
2022/11/29 09:45:02;;;;;;;;;;;;;;;5.44;76.72;92504.50;2071470;69;20266;-76
2022/11/29 09:47:32;;;;;;;29.38;18.10;;;;;;;5.43;77.38;92503.03;2071086;69;20048;-77
2022/11/29 09:50:19;;;;;;;27.77;17.60;;;;;;;5.65;77.34;92513.13;2071271;69;20152;-74
2022/11/29 09:53:00;;;;;;;26.30;16.42;;;;;;;5.79;77.04;92499.47;2071058;69;20175;-77
2022/11/29 09:55:38;;;;;;;22.75;14.82;;;;;;;5.69;76.53;92507.09;2071272;69;20275;-76
2022/11/29 09:58:12;;;;;;;26.50;15.15;;;;;;;5.79;76.38;92505.06;2071278;69;20672;-78
2022/11/29 10:00:52;;;;;;;28.00;16.15;;;;;;;5.86;76.54;92504.19;2068027;69;20306;-78
2022/11/29 10:03:24;;;;;;;22.80;14.73;;;;;;;5.93;76.00;92502.63;2071176;69;20140;-76
2022/11/29 10:05:58;;;;;;;24.65;15.80;;;;;;;5.52;76.72;92496.75;2071385;69;20581;-80
2022/11/29 10:08:33;;;;;;;25.98;15.70;;;;;;;5.62;76.03;92497.53;2071758;69;20176;-79
2022/11/29 10:11:23;;;;;;;25.85;18.20;;;;;;;5.64;77.01;92505.34;2071740;69;20693;-75
2022/11/29 10:13:56;;;;;;;27.20;17.75;;;;;;;5.63;76.91;92498.97;2071766;69;20132;-76
2022/11/29 10:16:48;;;;;;;24.92;16.77;;;;;;;5.74;77.37;92504.03;2071612;69;20231;-73
2022/11/29 10:19:18;;;;;;;20.88;14.18;;;;;;;5.97;76.48;92500.13;2071427;69;20249;-77
2022/11/29 10:21:58;;;;;;;25.10;15.32;;;;;;;5.96;76.57;92501.47;2071677;69;20512;-80
2022/11/29 10:24:28;;;;;;;22.50;14.48;;;;;;;5.93;76.47;92497.03;2071733;69;20179;-77
2022/11/29 10:26:54;;;;;;;26.40;17.95;;;;;;;5.74;75.62;92495.66;2068160;69;20160;-79
2022/11/29 10:29:21;;;;;;;25.90;16.58;;;;;;;5.77;76.25;92483.31;2068294;69;20149;-81
2022/11/29 10:31:48;;;;;;;25.23;16.30;;;;;;;5.85;77.18;92491.53;2071857;69;20604;-80
2022/11/29 10:34:20;;;;;;;25.38;16.00;;;;;;;6.16;76.54;92491.03;2071571;69;20171;-79
2022/11/29 10:37:00;;;;;;;24.03;15.30;;;;;;;6.16;76.18;92488.22;2071660;69;20527;-72
2022/11/29 10:39:52;;;;;;;25.55;17.17;;;;;;;6.34;75.43;92483.97;2071668;69;20156;-72
2022/11/29 10:45:14;;;;;;;20.63;14.48;;;;;;;6.21;75.53;92476.75;2072032;69;20172;-79
2022/11/29 10:47:40;;;;;;;20.25;14.00;;;;;;;6.11;75.27;92484.41;2071562;69;20548;-80
2022/11/29 10:50:07;;;;;;;23.55;15.35;;;;;;;6.24;75.16;92486.03;2071941;69;20234;-82
2022/11/29 10:52:33;;;;;;;21.27;15.05;;;;;;;6.33;74.48;92486.03;2071887;69;20136;-77
2022/11/29 10:55:00;;;;;;;22.63;15.95;;;;;;;6.30;74.49;92489.25;2071880;69;20152;-72
2022/11/29 10:57:26;;;;;;;22.08;14.68;;;;;;;6.36;74.18;92489.69;2071908;69;20651;-73
2022/11/29 11:00:05;;;;;;;23.05;13.95;;;;;;;6.49;74.11;92482.94;2071852;69;20717;-81
2022/11/29 11:02:32;;;;;;;20.55;15.00;;;;;;;6.62;74.09;92482.47;2068469;69;20181;-83
2022/11/29 11:04:59;;;;;;;21.08;13.98;;;;;;;6.72;73.85;92490.84;2065731;69;20214;-78
2022/11/29 11:07:30;;;;;;;22.17;15.40;;;;;;;6.06;74.38;92491.03;2071865;69;20653;-80
2022/11/29 11:09:56;;;;;;;23.17;14.77;;;;;;;6.09;75.52;92487.78;2068665;69;20156;-75
2022/11/29 11:12:27;;;;;;;20.30;14.05;;;;;;;6.44;74.43;92490.28;2071920;69;20184;-75
2022/11/29 11:15:14;;;;;;;22.85;14.60;;;;;;;6.63;74.09;92497.94;2071627;69;20578;-77
2022/11/29 11:17:45;;;;;;;21.35;13.75;;;;;;;6.70;73.29;92491.44;2071484;69;20143;-74
2022/11/29 11:20:22;;;;;;;20.95;13.55;;;;;;;6.46;73.28;92490.44;2071773;69;20229;-74
2022/11/29 11:23:06;;;;;;;18.38;11.65;;;;;;;6.46;73.47;92492.47;2068205;69;20141;-75
2022/11/29 11:25:36;;;;;;;20.83;12.82;;;;;;;5.92;75.49;92487.19;2071700;69;20148;-74
2022/11/29 11:28:24;;;;;;;18.95;12.30;;;;;;;6.43;74.78;92482.50;2071351;69;20211;-73
2022/11/29 11:30:53;;;;;;;16.58;10.98;;;;;;;6.08;74.50;92485.56;2071664;69;20181;-74
2022/11/29 11:33:30;;;;;;;17.00;11.20;;;;;;;6.02;74.48;92491.47;2068046;69;20152;-76
2022/11/29 11:36:22;;;;;;;18.10;10.70;;;;;;;6.15;73.90;92478.38;2071520;69;20144;-81
2022/11/29 11:38:58;;;;;;;17.08;10.27;;;;;;;6.11;74.08;92481.59;2071373;69;20604;-72
2022/11/29 11:44:39;;;;;;;13.30;9.45;;;;;;;5.82;75.54;92470.38;2071443;69;20147;-79
2022/11/29 11:47:12;;;;;;;13.13;9.85;;;;;;;6.27;75.01;92484.84;2070828;69;20176;-76
2022/11/29 11:49:48;;;;;;;12.38;9.32;;;;;;;6.30;74.52;92484.41;2068221;69;20152;-75
2022/11/29 11:52:29;;;;;;;14.50;9.23;;;;;;;6.47;74.42;92472.34;2071598;69;20179;-74
2022/11/29 11:55:01;;;;;;;11.38;8.27;;;;;;;6.23;75.02;92474.13;2068382;69;20153;-74
2022/11/29 11:57:29;;;;;;;10.70;7.90;;;;;;;6.37;74.05;92480.00;2071454;69;20183;-76
2022/11/29 11:59:58;;;;;;;11.95;8.38;;;;;;;6.55;73.39;92481.31;2071633;69;20152;-74
2022/11/29 12:02:37;;;;;;;14.55;8.82;;;;;;;6.00;75.79;92479.38;2071290;69;20532;-73
2022/11/29 12:05:09;;;;;;;11.38;7.90;;;;;;;6.22;75.02;92483.81;2071493;69;20227;-78
2022/11/29 12:07:42;;;;;;;12.55;8.38;;;;;;;6.53;74.03;92486.00;2071493;69;20148;-78
2022/11/29 12:10:19;;;;;;;13.88;8.45;;;;;;;6.74;73.81;92485.41;2072338;69;20132;-77
2022/11/29 12:12:47;;;;;;;12.80;8.35;;;;;;;6.41;74.75;92485.88;2071833;69;20184;-75
2022/11/29 12:15:24;;;;;;;12.05;8.40;;;;;;;6.35;74.44;92491.75;2071434;69;20151;-73
2022/11/29 12:18:15;;;;;;;12.15;8.25;;;;;;;6.80;73.78;92492.16;2071613;69;20225;-76